MXP weather

Malpensa International Airport
Milan, Lombardy, Italy

Public forecast

Using degrees Celsius for public forecast. Weather courtesy of forecast.io.

Current aviation weather report (METAR) for Malpensa International Airport

Retrieved 2019/12/12 23:20 UTC (24 minutes ago):

LIMC 122320Z 06004KT 7000 SCT040 01/M00 Q1000 NOSIG

Aviation forecast (TAF) for Malpensa International Airport

Retrieved 2019/12/12 18:24 UTC (5 hours ago):

TAF LIMC 121700Z 1218/1324 VRB05KT 7000 SCT015 BKN025 BECMG 1302/1304 1000 SN OVC005 BECMG 1313/1316 34010KT 7000 NSW SCT060